Time;durP1;ratioP1;P1;durP2;ratioP2;P2;SDS_P1;SDS_P2;PMS_P1;PMS_P2;Temp;Humidity;BMP_temperature;BMP_pressure;BME280_temperature;BME280_humidity;BME280_pressure;Samples;Min_cycle;Max_cycle;Signal;HPM_P1;HPM_P2
2023/04/04 00:02:11;;;;;;;4.30;1.60;;;;;;;4.89;70.43;100512.34;105694;1258;66018;-50
2023/04/04 00:04:38;;;;;;;7.20;1.90;;;;;;;4.84;70.42;100507.54;105482;1255;62560;-47
2023/04/04 00:07:05;;;;;;;5.50;1.40;;;;;;;4.86;70.47;100509.01;105604;1257;65029;-47
2023/04/04 00:09:31;;;;;;;6.30;3.50;;;;;;;4.86;70.31;100507.79;105319;1257;60584;-47
2023/04/04 00:11:59;;;;;;;4.10;2.00;;;;;;;4.98;69.91;100508.52;105559;1257;60563;-47
2023/04/04 00:14:26;;;;;;;5.50;3.40;;;;;;;5.00;70.06;100508.77;106050;1259;65835;-47
2023/04/04 00:16:53;;;;;;;12.10;1.80;;;;;;;5.12;69.81;100506.77;105459;1256;62655;-47
2023/04/04 00:19:21;;;;;;;5.40;1.80;;;;;;;5.23;69.77;100510.48;105619;1257;64057;-47
2023/04/04 00:21:49;;;;;;;6.90;4.10;;;;;;;5.25;69.94;100516.48;105706;1257;60574;-47
2023/04/04 00:24:16;;;;;;;5.00;2.00;;;;;;;5.21;70.22;100515.83;105691;1256;60550;-47
2023/04/04 00:26:43;;;;;;;4.20;1.40;;;;;;;5.11;70.54;100516.35;105767;1258;65130;-47
2023/04/04 00:29:11;;;;;;;3.80;1.10;;;;;;;5.12;70.56;100519.95;105499;1260;61807;-47
2023/04/04 00:31:40;;;;;;;5.90;2.10;;;;;;;5.15;70.52;100523.27;105534;1259;64828;-47
2023/04/04 00:34:07;;;;;;;5.10;1.80;;;;;;;5.13;70.40;100526.16;105634;1260;60523;-47
2023/04/04 00:36:35;;;;;;;6.20;3.70;;;;;;;5.32;69.80;100528.20;105498;1257;61174;-47
2023/04/04 00:39:01;;;;;;;4.10;1.10;;;;;;;5.33;69.65;100528.52;105382;1259;66241;-47
2023/04/04 00:41:28;;;;;;;7.30;2.20;;;;;;;5.11;69.40;100526.42;105361;1256;62608;-47
2023/04/04 00:43:56;;;;;;;5.80;3.50;;;;;;;4.99;69.36;100523.94;105379;1257;64823;-47
2023/04/04 00:46:25;;;;;;;3.80;1.00;;;;;;;4.93;69.30;100519.08;105473;1257;60662;-47
2023/04/04 00:48:53;;;;;;;7.10;3.40;;;;;;;4.86;69.70;100512.31;105578;1259;60367;-47
2023/04/04 00:51:20;;;;;;;4.70;1.40;;;;;;;4.78;70.18;100508.92;105447;1262;66183;-47
2023/04/04 00:53:47;;;;;;;4.30;1.60;;;;;;;4.75;70.48;100507.34;105462;1257;62403;-47
2023/04/04 00:56:14;;;;;;;5.00;1.60;;;;;;;4.76;70.32;100507.64;105574;1256;65470;-47
2023/04/04 00:58:43;;;;;;;7.00;3.80;;;;;;;4.73;70.21;100505.20;105235;1257;60635;-47
2023/04/04 01:01:10;;;;;;;4.90;1.40;;;;;;;4.79;69.96;100502.25;105425;1262;60587;-47
2023/04/04 01:03:47;;;;;;;4.50;1.60;;;;;;;4.65;70.26;100502.13;105388;1257;66027;-47
2023/04/04 01:06:14;;;;;;;4.60;1.30;;;;;;;4.63;70.47;100500.15;105508;1259;61640;-47
2023/04/04 01:08:41;;;;;;;4.30;1.20;;;;;;;4.62;70.74;100502.80;105589;1262;63887;-47
2023/04/04 01:11:09;;;;;;;7.40;3.90;;;;;;;4.61;70.85;100503.94;105176;1265;60449;-46
2023/04/04 01:13:36;;;;;;;5.60;1.90;;;;;;;4.56;70.87;100502.13;105389;1257;60508;-47
2023/04/04 01:16:08;;;;;;;5.50;2.50;;;;;;;4.58;70.74;100505.48;105667;1260;66101;-47
2023/04/04 01:18:35;;;;;;;6.10;1.70;;;;;;;4.60;70.78;100511.95;105896;1254;62780;-47
2023/04/04 01:21:06;;;;;;;6.50;3.80;;;;;;;4.59;71.02;100507.65;105382;1260;73378;-47
2023/04/04 01:23:42;;;;;;;6.40;1.70;;;;;;;4.61;71.04;100513.46;105424;1257;60917;-47
2023/04/04 01:26:10;;;;;;;5.90;2.00;;;;;;;4.67;70.96;100513.35;105663;1256;60553;-47
2023/04/04 01:28:38;;;;;;;5.10;1.50;;;;;;;4.70;70.99;100516.46;105427;1260;65876;-47
2023/04/04 01:31:10;;;;;;;5.00;2.10;;;;;;;4.72;71.08;100517.77;105463;1257;62807;-47
2023/04/04 01:33:45;;;;;;;5.10;1.60;;;;;;;4.74;70.99;100522.17;105485;1257;64703;-47
2023/04/04 01:36:30;;;;;;;4.90;1.60;;;;;;;4.79;70.49;100525.05;105468;1261;60566;-47
2023/04/04 01:38:58;;;;;;;4.30;1.40;;;;;;;4.80;70.13;100530.55;105534;1257;60410;-47
2023/04/04 01:41:26;;;;;;;4.20;2.00;;;;;;;4.80;70.07;100535.25;105448;1260;65203;-47
2023/04/04 01:43:56;;;;;;;6.40;3.30;;;;;;;4.76;70.21;100539.62;105637;1254;62750;-47
2023/04/04 01:46:24;;;;;;;6.00;1.60;;;;;;;4.80;70.27;100539.93;105479;1262;72878;-47
2023/04/04 01:48:52;;;;;;;4.20;1.20;;;;;;;4.88;70.22;100544.37;105538;1254;62565;-47
2023/04/04 01:51:23;;;;;;;4.40;1.50;;;;;;;4.92;69.91;100541.92;105726;1259;60470;-47
2023/04/04 01:53:51;;;;;;;6.00;3.80;;;;;;;4.91;69.71;100539.19;105518;1261;66022;-50
2023/04/04 01:56:18;;;;;;;7.30;2.70;;;;;;;4.87;69.66;100537.14;105450;1259;62636;-47
2023/04/04 01:58:46;;;;;;;4.40;1.40;;;;;;;4.86;69.81;100537.54;105449;1261;65214;-47
2023/04/04 02:01:13;;;;;;;3.60;1.50;;;;;;;4.93;69.94;100534.54;105669;1262;60609;-46
2023/04/04 02:03:41;;;;;;;6.80;3.80;;;;;;;5.01;70.00;100531.00;105453;1258;60918;-47
2023/04/04 02:06:08;;;;;;;6.50;1.90;;;;;;;5.02;69.85;100533.02;105425;1260;66139;-47
2023/04/04 02:08:38;;;;;;;8.20;2.30;;;;;;;4.97;69.88;100528.94;105423;1259;62494;-47
2023/04/04 02:11:05;;;;;;;6.90;2.40;;;;;;;4.96;70.05;100529.17;105350;1257;65446;-47
2023/04/04 02:13:34;;;;;;;7.00;2.40;;;;;;;4.96;69.92;100530.21;105363;1257;60486;-46
2023/04/04 02:16:06;;;;;;;6.00;2.00;;;;;;;5.00;69.69;100530.34;105441;1257;60565;-46
2023/04/04 02:18:35;;;;;;;9.30;4.90;;;;;;;5.08;69.52;100526.64;105806;1259;66117;-46
2023/04/04 02:21:04;;;;;;;7.10;2.30;;;;;;;5.13;69.47;100524.61;105668;1255;62578;-46
2023/04/04 02:23:31;;;;;;;8.50;6.00;;;;;;;5.17;69.37;100518.10;105463;1258;65016;-46
2023/04/04 02:25:58;;;;;;;7.20;2.60;;;;;;;5.17;69.17;100514.66;105345;1260;60466;-48
2023/04/04 02:28:30;;;;;;;7.60;3.10;;;;;;;5.15;69.13;100507.98;105303;1262;60652;-47
2023/04/04 02:31:01;;;;;;;7.80;2.50;;;;;;;5.11;69.22;100501.04;105604;1260;65998;-47
2023/04/04 02:33:30;;;;;;;6.80;2.70;;;;;;;5.09;69.18;100496.45;105597;1257;62445;-47
2023/04/04 02:36:01;;;;;;;7.00;2.90;;;;;;;5.07;69.10;100491.56;105356;1259;65026;-47
2023/04/04 02:38:29;;;;;;;7.70;2.60;;;;;;;5.02;69.16;100484.69;105615;1259;60473;-47
2023/04/04 02:40:56;;;;;;;9.80;6.40;;;;;;;4.96;69.41;100485.70;105503;1256;60518;-47
2023/04/04 02:43:24;;;;;;;6.90;2.20;;;;;;;4.88;69.67;100482.14;105878;1259;65853;-47
2023/04/04 02:45:51;;;;;;;5.80;2.50;;;;;;;4.86;69.71;100478.08;105464;1260;62440;-47
2023/04/04 02:48:26;;;;;;;5.80;2.30;;;;;;;4.86;69.89;100482.62;105210;1257;284724;-47
2023/04/04 03:02:42;;;;;;;7.20;2.30;;;;;;;5.09;69.72;100506.55;103249;1286;603585;-46
2023/04/04 03:05:12;;;;;;;8.00;5.40;;;;;;;5.51;68.41;100518.84;104664;1267;104787;-46
2023/04/04 03:07:40;;;;;;;8.40;5.60;;;;;;;5.49;68.28;100518.05;104967;1266;60886;-46
2023/04/04 03:10:10;;;;;;;6.00;2.00;;;;;;;5.45;68.49;100520.73;105045;1268;64330;-47
2023/04/04 03:12:38;;;;;;;9.20;6.00;;;;;;;5.39;68.38;100522.61;105371;1260;62736;-46
2023/04/04 03:15:10;;;;;;;7.40;2.50;;;;;;;5.33;68.55;100530.63;105445;1260;64878;-46
2023/04/04 03:17:40;;;;;;;7.80;5.50;;;;;;;5.28;68.61;100530.56;105879;1259;59423;-47
2023/04/04 03:20:10;;;;;;;9.90;5.80;;;;;;;5.26;68.65;100530.11;105234;1257;59387;-47
2023/04/04 03:22:39;;;;;;;6.00;2.50;;;;;;;5.22;68.73;100531.39;105241;1257;64161;-47
2023/04/04 03:25:08;;;;;;;4.90;2.10;;;;;;;5.16;68.99;100530.52;105291;1257;62671;-46
2023/04/04 03:27:38;;;;;;;9.30;5.40;;;;;;;5.09;69.24;100532.98;105445;1258;64698;-47
2023/04/04 03:30:08;;;;;;;6.70;3.10;;;;;;;5.07;69.27;100536.94;105698;1258;59767;-47
2023/04/04 03:32:40;;;;;;;8.40;5.30;;;;;;;5.09;69.29;100541.66;105091;1258;60205;-46
2023/04/04 03:35:09;;;;;;;6.20;2.00;;;;;;;5.08;69.07;100544.20;105522;1262;65249;-47
2023/04/04 03:37:39;;;;;;;9.40;5.50;;;;;;;5.11;69.06;100541.23;105324;1262;61338;-46
2023/04/04 03:40:08;;;;;;;5.90;2.20;;;;;;;5.12;68.83;100538.36;105388;1263;63955;-46
2023/04/04 03:42:36;;;;;;;6.70;2.20;;;;;;;4.96;69.27;100539.92;105553;1263;59669;-46
2023/04/04 03:45:08;;;;;;;7.40;3.20;;;;;;;4.91;69.51;100539.85;105408;1257;59649;-46
2023/04/04 03:47:37;;;;;;;7.80;3.10;;;;;;;4.92;69.36;100534.59;105402;1258;64543;-46
2023/04/04 03:50:10;;;;;;;8.00;2.90;;;;;;;4.89;69.33;100533.39;105300;1262;62419;-46
2023/04/04 03:52:42;;;;;;;11.20;7.00;;;;;;;4.81;69.51;100533.46;105327;1260;65031;-47
2023/04/04 03:55:10;;;;;;;7.30;2.20;;;;;;;4.74;69.58;100540.05;105440;1260;59663;-48
2023/04/04 03:57:38;;;;;;;6.80;3.10;;;;;;;4.74;69.66;100541.96;105392;1260;59686;-47
2023/04/04 04:00:10;;;;;;;6.60;2.00;;;;;;;4.77;69.74;100546.52;105084;1258;65474;-47
2023/04/04 04:02:42;;;;;;;7.10;3.30;;;;;;;4.75;69.86;100556.38;105236;1257;62744;-47
2023/04/04 04:05:12;;;;;;;6.80;2.40;;;;;;;4.70;69.96;100562.02;105271;1258;65029;-48
2023/04/04 04:07:43;;;;;;;6.10;2.60;;;;;;;4.70;70.12;100559.94;105372;1263;59643;-47
2023/04/04 04:10:17;;;;;;;6.20;2.10;;;;;;;4.73;70.02;100559.98;105123;1260;59650;-49
2023/04/04 04:12:48;;;;;;;7.20;2.70;;;;;;;4.75;69.93;100557.27;105426;1259;65034;-49
2023/04/04 04:15:17;;;;;;;7.00;3.00;;;;;;;4.73;69.91;100556.49;105246;1262;62656;-49
2023/04/04 04:17:47;;;;;;;9.50;7.10;;;;;;;4.69;70.05;100559.45;105333;1259;65183;-48
2023/04/04 04:20:16;;;;;;;8.50;3.20;;;;;;;4.70;70.10;100560.77;105495;1258;60028;-48
2023/04/04 04:22:48;;;;;;;6.30;2.60;;;;;;;4.71;70.17;100568.03;105402;1258;59772;-48
2023/04/04 04:25:18;;;;;;;7.00;3.00;;;;;;;4.75;70.07;100571.64;105373;1262;65234;-46
2023/04/04 04:27:56;;;;;;;6.40;2.30;;;;;;;4.74;70.06;100574.13;105398;1260;62375;-45
2023/04/04 04:30:25;;;;;;;7.10;2.40;;;;;;;4.73;70.36;100570.54;105335;1263;64040;-45
2023/04/04 04:32:56;;;;;;;9.80;3.20;;;;;;;4.80;70.32;100566.36;105247;1263;59749;-48
2023/04/04 04:35:27;;;;;;;7.70;3.50;;;;;;;4.81;70.25;100567.48;105757;1261;59611;-46
2023/04/04 04:38:00;;;;;;;10.60;6.70;;;;;;;4.83;70.21;100571.77;105344;1263;65388;-48
2023/04/04 04:40:29;;;;;;;8.20;3.80;;;;;;;4.87;70.11;100569.11;105194;1260;62422;-48
2023/04/04 04:43:10;;;;;;;7.60;3.80;;;;;;;4.89;69.97;100566.93;105163;1257;65055;-48
2023/04/04 04:45:41;;;;;;;7.00;2.40;;;;;;;4.87;69.82;100567.73;105139;1257;59621;-48
2023/04/04 04:48:09;;;;;;;6.90;3.10;;;;;;;4.81;69.80;100566.13;105610;1257;59705;-48
2023/04/04 04:50:45;;;;;;;6.70;3.10;;;;;;;4.79;69.75;100565.71;107172;1263;65539;-47
2023/04/04 04:53:16;;;;;;;6.80;2.90;;;;;;;4.79;69.92;100567.29;107089;1257;62302;-46
2023/04/04 04:55:51;;;;;;;11.20;7.50;;;;;;;4.83;69.59;100566.03;106096;1256;65044;-46
2023/04/04 04:58:22;;;;;;;9.10;3.00;;;;;;;4.80;69.38;100569.85;105511;1258;59749;-46
2023/04/04 05:00:56;;;;;;;8.10;3.80;;;;;;;4.75;69.67;100570.95;105821;1260;59640;-46
2023/04/04 05:03:26;;;;;;;11.60;2.50;;;;;;;4.78;69.72;100570.27;105512;1257;64849;-47
2023/04/04 05:05:55;;;;;;;10.60;7.20;;;;;;;4.79;69.92;100572.32;107159;1256;61619;-47
2023/04/04 05:08:23;;;;;;;7.60;3.10;;;;;;;4.80;70.11;100567.90;109103;1256;64174;-47
2023/04/04 05:11:01;;;;;;;9.40;3.30;;;;;;;4.85;70.11;100567.51;109090;1256;57406;-48
2023/04/04 05:13:34;;;;;;;9.00;3.50;;;;;;;4.92;69.77;100574.92;109017;1256;57652;-47
2023/04/04 05:16:03;;;;;;;8.40;4.10;;;;;;;4.96;69.44;100569.84;109052;1256;65644;-48
2023/04/04 05:18:33;;;;;;;18.50;3.80;;;;;;;4.93;69.20;100564.28;109035;1255;62690;-47
2023/04/04 05:21:01;;;;;;;9.50;6.90;;;;;;;4.89;69.53;100561.01;105699;1257;63994;-46
2023/04/04 05:23:30;;;;;;;7.00;3.20;;;;;;;4.88;69.76;100559.68;105644;1257;59703;-47
2023/04/04 05:25:58;;;;;;;8.80;3.70;;;;;;;4.90;69.89;100561.10;105435;1257;59613;-47
2023/04/04 05:28:29;;;;;;;11.80;7.00;;;;;;;4.92;70.04;100564.84;105787;1259;65304;-46
2023/04/04 05:31:01;;;;;;;5.90;2.30;;;;;;;4.91;70.07;100565.96;105750;1257;62438;-47
2023/04/04 05:33:32;;;;;;;6.10;2.20;;;;;;;4.84;70.12;100569.23;105357;1260;64740;-46
2023/04/04 05:36:14;;;;;;;6.60;2.30;;;;;;;4.80;69.86;100573.86;105497;1257;59681;-46
2023/04/04 05:38:58;;;;;;;9.40;2.70;;;;;;;4.76;69.96;100585.86;105368;1257;59670;-46
2023/04/04 05:41:31;;;;;;;8.30;5.90;;;;;;;4.72;70.09;100601.55;105491;1260;65469;-47
2023/04/04 05:44:02;;;;;;;5.50;1.50;;;;;;;4.70;70.30;100607.39;105422;1257;62269;-47
2023/04/04 05:46:32;;;;;;;7.20;2.80;;;;;;;4.65;70.44;100610.23;105512;1257;65030;-46
2023/04/04 05:49:01;;;;;;;8.80;5.80;;;;;;;4.64;70.39;100615.33;105249;1256;59708;-46
2023/04/04 05:51:36;;;;;;;7.50;2.20;;;;;;;4.70;70.40;100622.52;105695;1260;59563;-46
2023/04/04 05:54:12;;;;;;;6.30;2.40;;;;;;;4.73;70.26;100628.26;105497;1254;68254;-46
2023/04/04 05:56:42;;;;;;;6.10;2.50;;;;;;;4.69;70.33;100623.59;105963;1254;62599;-47
2023/04/04 05:59:27;;;;;;;8.20;2.70;;;;;;;4.64;70.59;100623.83;105652;1254;63999;-50
2023/04/04 06:02:00;;;;;;;5.60;2.40;;;;;;;4.66;70.68;100617.83;105447;1254;59665;-47
2023/04/04 06:04:29;;;;;;;6.40;1.70;;;;;;;4.77;70.64;100617.61;105531;1257;61172;-48
2023/04/04 06:07:01;;;;;;;5.90;2.70;;;;;;;4.78;70.33;100616.15;105466;1254;65448;-47
2023/04/04 06:09:30;;;;;;;8.10;3.00;;;;;;;4.76;70.05;100619.05;105429;1254;62710;-47
2023/04/04 06:11:59;;;;;;;10.60;6.90;;;;;;;4.72;70.04;100621.84;105612;1257;63998;-48
2023/04/04 06:14:28;;;;;;;6.30;2.50;;;;;;;4.71;70.23;100622.11;105438;1254;60016;-47
2023/04/04 06:16:57;;;;;;;8.70;3.00;;;;;;;4.72;70.00;100616.14;105956;1254;59767;-47
2023/04/04 06:19:25;;;;;;;9.70;3.10;;;;;;;4.71;69.87;100620.72;105578;1258;65066;-47
2023/04/04 06:21:54;;;;;;;10.20;6.60;;;;;;;4.67;69.88;100619.17;105691;1254;62762;-51
2023/04/04 06:24:23;;;;;;;7.40;3.20;;;;;;;4.68;69.95;100621.55;105372;1257;64168;-47
2023/04/04 06:26:57;;;;;;;7.50;2.90;;;;;;;4.70;69.80;100618.83;105342;1254;59865;-47
2023/04/04 06:29:27;;;;;;;8.70;2.70;;;;;;;4.73;69.58;100617.66;105986;1254;59647;-46
2023/04/04 06:31:59;;;;;;;9.50;3.90;;;;;;;4.73;69.76;100616.45;105622;1253;64225;-47
2023/04/04 06:34:38;;;;;;;8.10;3.40;;;;;;;4.71;70.02;100615.50;105174;1254;62631;-46
2023/04/04 06:37:07;;;;;;;9.80;4.00;;;;;;;4.72;70.10;100617.35;105488;1253;64984;-47
2023/04/04 06:39:48;;;;;;;11.30;4.40;;;;;;;4.79;69.88;100613.34;105468;1255;59673;-47
2023/04/04 06:42:22;;;;;;;14.70;9.60;;;;;;;4.83;69.70;100605.65;104962;1254;59736;-48
2023/04/04 06:44:52;;;;;;;9.30;3.40;;;;;;;4.81;69.40;100603.81;105162;1257;75322;-47
2023/04/04 06:47:21;;;;;;;7.80;3.60;;;;;;;4.79;69.48;100607.59;105595;1257;61739;-47
2023/04/04 06:49:50;;;;;;;14.40;8.50;;;;;;;4.78;69.47;100607.48;105889;1254;64068;-47
2023/04/04 06:52:18;;;;;;;8.70;2.90;;;;;;;4.84;69.35;100603.31;105446;1254;62649;-47
2023/04/04 06:54:47;;;;;;;9.20;3.80;;;;;;;4.94;69.18;100607.69;105512;1254;59753;-47
2023/04/04 06:57:17;;;;;;;9.60;4.20;;;;;;;4.95;68.81;100610.73;105634;1254;64392;-47
2023/04/04 06:59:47;;;;;;;8.90;3.90;;;;;;;4.95;68.87;100610.58;106276;1254;62551;-47
2023/04/04 07:02:15;;;;;;;9.10;3.80;;;;;;;4.93;68.97;100610.87;105445;1254;64926;-48
2023/04/04 07:04:44;;;;;;;9.70;4.20;;;;;;;4.89;68.71;100610.86;105681;1254;59640;-47
2023/04/04 07:07:12;;;;;;;11.00;6.30;;;;;;;4.90;68.60;100612.05;105753;1254;59766;-47
2023/04/04 07:09:42;;;;;;;6.90;2.10;;;;;;;4.90;68.70;100614.67;105724;1254;64323;-62
2023/04/04 07:12:10;;;;;;;6.60;2.50;;;;;;;4.89;68.97;100618.88;106122;1258;61434;-62
2023/04/04 07:14:38;;;;;;;7.10;3.50;;;;;;;4.88;68.98;100616.38;105799;1254;63762;-63
2023/04/04 07:17:07;;;;;;;6.70;2.60;;;;;;;4.84;68.87;100621.59;105572;1254;60479;-67
2023/04/04 07:19:51;;;;;;;7.60;3.90;;;;;;;4.80;68.57;100622.48;105989;1257;60366;-64
2023/04/04 07:22:19;;;;;;;11.90;7.70;;;;;;;4.76;68.36;100625.45;105960;1257;66349;-65
2023/04/04 07:24:49;;;;;;;8.30;3.60;;;;;;;4.70;68.73;100625.13;105978;1254;62692;-65
2023/04/04 07:27:17;;;;;;;6.00;3.30;;;;;;;4.65;68.67;100628.16;105744;1257;64986;-62
2023/04/04 07:29:46;;;;;;;10.10;7.00;;;;;;;4.64;68.56;100631.64;105834;1254;60533;-62
2023/04/04 07:32:14;;;;;;;6.90;2.70;;;;;;;4.65;68.72;100626.05;105775;1255;60303;-63
2023/04/04 07:34:44;;;;;;;10.80;4.40;;;;;;;4.64;68.97;100627.98;105530;1257;66315;-63
2023/04/04 07:37:14;;;;;;;12.90;8.40;;;;;;;4.68;69.17;100628.52;105527;1258;61955;-63
2023/04/04 07:39:43;;;;;;;9.40;3.00;;;;;;;4.78;69.21;100628.67;105468;1254;64224;-63
2023/04/04 07:42:12;;;;;;;8.50;3.40;;;;;;;4.87;69.16;100631.35;105450;1254;60532;-61
2023/04/04 07:44:48;;;;;;;7.60;3.00;;;;;;;4.88;68.68;100634.80;105481;1254;60578;-63
2023/04/04 07:47:17;;;;;;;8.40;3.00;;;;;;;4.84;68.51;100635.67;105437;1259;66489;-61
2023/04/04 07:49:45;;;;;;;12.10;6.00;;;;;;;4.81;68.61;100639.16;105506;1257;61691;-61
2023/04/04 07:52:13;;;;;;;8.10;3.40;;;;;;;4.84;68.60;100633.22;105733;1253;65123;-60
2023/04/04 07:54:42;;;;;;;8.50;3.40;;;;;;;4.86;68.32;100629.83;105464;1254;60460;-61
2023/04/04 07:57:12;;;;;;;6.00;3.10;;;;;;;4.82;68.62;100627.06;105585;1254;60450;-59
2023/04/04 07:59:41;;;;;;;6.40;2.70;;;;;;;4.80;68.79;100636.23;105478;1256;66894;-58
2023/04/04 08:02:13;;;;;;;7.10;2.70;;;;;;;4.79;69.10;100640.29;105400;1256;62585;-59
2023/04/04 08:04:42;;;;;;;9.00;2.70;;;;;;;4.84;69.33;100639.48;105556;1254;64852;-58
2023/04/04 08:07:10;;;;;;;11.30;7.50;;;;;;;4.89;69.32;100638.39;105357;1254;60494;-60
2023/04/04 08:09:39;;;;;;;6.20;2.40;;;;;;;4.85;68.92;100641.02;105641;1254;60434;-58
2023/04/04 08:12:08;;;;;;;8.80;3.60;;;;;;;4.82;69.29;100641.66;105600;1254;64882;-59
2023/04/04 08:14:37;;;;;;;7.90;3.50;;;;;;;4.85;69.43;100642.20;105561;1254;62576;-59
2023/04/04 08:17:07;;;;;;;12.30;7.50;;;;;;;4.92;69.34;100639.43;105665;1254;64723;-59
2023/04/04 08:19:36;;;;;;;9.20;3.40;;;;;;;4.94;69.06;100638.11;105519;1254;60469;-58
2023/04/04 08:22:04;;;;;;;11.20;7.50;;;;;;;4.92;69.08;100637.52;105633;1254;60475;-59
2023/04/04 08:24:33;;;;;;;8.70;2.80;;;;;;;4.87;69.11;100639.70;105678;1258;66180;-58
2023/04/04 08:27:03;;;;;;;5.90;2.50;;;;;;;4.90;69.11;100642.33;105606;1257;61740;-60
2023/04/04 08:29:33;;;;;;;10.30;4.00;;;;;;;4.93;69.46;100643.55;105639;1254;64727;-58
2023/04/04 08:32:01;;;;;;;12.10;8.40;;;;;;;4.95;69.57;100640.83;105646;1254;60482;-58
2023/04/04 08:34:30;;;;;;;6.90;2.60;;;;;;;4.90;69.29;100639.89;105812;1254;60559;-58
2023/04/04 08:36:59;;;;;;;9.70;6.80;;;;;;;4.90;69.03;100639.86;105652;1258;66202;-58
2023/04/04 08:39:27;;;;;;;7.20;2.80;;;;;;;4.88;69.20;100642.39;105508;1254;62723;-62
2023/04/04 08:42:04;;;;;;;8.60;3.40;;;;;;;4.88;69.24;100639.13;105824;1253;65039;-59
2023/04/04 08:44:36;;;;;;;6.70;2.60;;;;;;;4.85;69.75;100639.80;105692;1254;60548;-58
2023/04/04 08:47:04;;;;;;;10.30;7.40;;;;;;;4.91;69.68;100645.59;105522;1254;60451;-58
2023/04/04 08:49:40;;;;;;;10.00;4.20;;;;;;;4.99;69.49;100649.48;105328;1258;66133;-60
2023/04/04 08:52:10;;;;;;;12.20;7.60;;;;;;;5.03;69.33;100647.73;105639;1257;61360;-59
2023/04/04 08:54:39;;;;;;;6.60;2.60;;;;;;;5.03;69.06;100647.86;105947;1253;63689;-59
2023/04/04 08:57:08;;;;;;;7.40;2.80;;;;;;;5.06;68.82;100650.01;105636;1254;60426;-59
2023/04/04 08:59:36;;;;;;;6.40;3.00;;;;;;;5.14;68.86;100650.30;105647;1255;60453;-59
2023/04/04 09:02:07;;;;;;;11.80;8.10;;;;;;;5.18;68.10;100650.76;105645;1259;66180;-60
2023/04/04 09:04:36;;;;;;;7.70;3.50;;;;;;;5.16;67.83;100653.65;105547;1254;62306;-58
2023/04/04 09:07:05;;;;;;;9.10;4.20;;;;;;;5.12;68.07;100656.96;105576;1254;65432;-59
2023/04/04 09:09:36;;;;;;;11.70;7.80;;;;;;;5.11;68.16;100657.05;105591;1254;60417;-59
2023/04/04 09:12:04;;;;;;;7.20;3.10;;;;;;;5.16;67.76;100654.67;105681;1254;60588;-59
2023/04/04 09:14:32;;;;;;;9.80;3.10;;;;;;;5.17;67.82;100656.35;105525;1257;66178;-59
2023/04/04 09:17:01;;;;;;;7.70;3.70;;;;;;;5.15;68.05;100660.50;105659;1254;71787;-58
2023/04/04 09:19:30;;;;;;;11.80;7.10;;;;;;;5.16;68.28;100661.63;105612;1259;65226;-58
2023/04/04 09:21:58;;;;;;;9.00;3.90;;;;;;;5.27;68.20;100659.29;105810;1254;60482;-59
2023/04/04 09:24:44;;;;;;;12.40;8.80;;;;;;;5.36;67.89;100656.58;105620;1255;60370;-60
2023/04/04 09:27:13;;;;;;;;;;;;;;;5.40;67.83;100654.27;105685;1256;66106;-59
2023/04/04 09:29:41;;;;;;;6.90;3.00;;;;;;;5.40;67.23;100652.20;105450;1254;62618;-59
2023/04/04 09:32:15;;;;;;;7.50;3.00;;;;;;;5.42;67.44;100654.34;105523;1259;65068;-58
2023/04/04 09:34:44;;;;;;;11.60;3.60;;;;;;;5.49;67.51;100652.91;105661;1257;60478;-61
2023/04/04 09:37:14;;;;;;;9.30;3.30;;;;;;;5.52;66.93;100656.06;105666;1254;60489;-58
2023/04/04 09:39:43;;;;;;;12.90;9.40;;;;;;;5.52;67.17;100660.42;105719;1257;65985;-58
2023/04/04 09:42:12;;;;;;;9.90;4.10;;;;;;;5.49;67.24;100662.13;105571;1259;63071;-58
2023/04/04 09:44:41;;;;;;;10.00;4.90;;;;;;;5.51;66.86;100661.13;105598;1254;64732;-58
2023/04/04 09:47:25;;;;;;;11.10;5.10;;;;;;;5.58;67.03;100655.90;105585;1254;60532;-58
2023/04/04 09:50:00;;;;;;;13.60;10.20;;;;;;;5.60;67.01;100656.48;106086;1254;60498;-59
2023/04/04 09:52:31;;;;;;;9.20;4.60;;;;;;;5.57;66.94;100657.53;105729;1257;66369;-59
2023/04/04 09:55:02;;;;;;;8.90;4.10;;;;;;;5.61;67.24;100653.67;105675;1257;61753;-58
2023/04/04 09:57:34;;;;;;;12.80;8.80;;;;;;;5.69;67.13;100652.50;105801;1257;63713;-58
2023/04/04 10:00:07;;;;;;;8.10;3.60;;;;;;;5.81;66.80;100654.46;105750;1257;60555;-58
2023/04/04 10:02:49;;;;;;;13.70;10.90;;;;;;;5.89;66.38;100652.64;105572;1253;60460;-58
2023/04/04 10:05:18;;;;;;;9.70;4.70;;;;;;;5.90;66.16;100653.28;105632;1255;65213;-58
2023/04/04 10:07:47;;;;;;;17.20;11.60;;;;;;;5.90;66.17;100653.95;105514;1254;62657;-60
2023/04/04 10:10:16;;;;;;;10.80;3.90;;;;;;;5.93;66.28;100658.83;105513;1257;65195;-60
2023/04/04 10:12:46;;;;;;;15.80;10.60;;;;;;;6.06;65.73;100657.81;105648;1253;61194;-60
2023/04/04 10:15:16;;;;;;;10.60;3.80;;;;;;;6.03;65.36;100653.41;105545;1254;61117;-60
2023/04/04 10:17:46;;;;;;;15.70;11.50;;;;;;;6.07;65.54;100650.60;105715;1253;66161;-60
2023/04/04 10:20:14;;;;;;;10.90;5.90;;;;;;;6.23;65.11;100651.24;105580;1254;62541;-60
2023/04/04 10:22:47;;;;;;;17.60;12.90;;;;;;;6.16;64.82;100644.67;105700;1254;65147;-59
2023/04/04 10:25:16;;;;;;;12.40;6.70;;;;;;;6.14;64.86;100640.44;105645;1254;60549;-60
2023/04/04 10:27:45;;;;;;;15.50;11.70;;;;;;;6.24;64.85;100638.30;105594;1254;60527;-59
2023/04/04 10:30:13;;;;;;;14.90;10.40;;;;;;;6.31;64.43;100638.06;105823;1257;75012;-58
2023/04/04 10:32:47;;;;;;;9.40;3.60;;;;;;;6.35;64.19;100639.43;105551;1254;62822;-58
2023/04/04 10:35:16;;;;;;;13.60;9.30;;;;;;;6.38;64.24;100643.80;105886;1258;64774;-60
2023/04/04 10:37:53;;;;;;;13.80;9.80;;;;;;;6.40;63.86;100641.73;105523;1254;60544;-58
2023/04/04 10:40:21;;;;;;;9.10;4.50;;;;;;;6.42;63.73;100647.05;105865;1257;60442;-58
2023/04/04 10:42:50;;;;;;;10.20;4.50;;;;;;;6.52;63.70;100646.46;105656;1253;65184;-58
2023/04/04 10:45:19;;;;;;;12.10;9.40;;;;;;;6.70;63.61;100651.01;105522;1254;62525;-61
2023/04/04 10:47:49;;;;;;;15.30;11.00;;;;;;;6.85;62.88;100660.73;105534;1259;64895;-62
2023/04/04 10:50:19;;;;;;;15.50;11.00;;;;;;;6.88;62.48;100662.77;105524;1254;60464;-59
2023/04/04 10:52:48;;;;;;;13.50;10.00;;;;;;;6.87;62.49;100659.04;105745;1255;60944;-59
2023/04/04 10:55:17;;;;;;;9.60;4.70;;;;;;;6.82;61.94;100656.20;105563;1254;74128;-59
2023/04/04 10:57:50;;;;;;;13.90;9.70;;;;;;;6.71;61.54;100653.88;105534;1254;62772;-61
2023/04/04 11:00:25;;;;;;;9.40;3.70;;;;;;;6.58;61.54;100652.72;105497;1254;65169;-59
2023/04/04 11:03:00;;;;;;;8.00;4.50;;;;;;;6.59;62.03;100658.27;105689;1254;60536;-59
2023/04/04 11:05:46;;;;;;;;;;;;;;;6.60;62.08;100656.13;105680;1254;60581;-59
2023/04/04 11:08:16;;;;;;;7.70;3.10;;;;;;;6.62;62.09;100652.70;105690;1259;66177;-59
2023/04/04 11:10:47;;;;;;;12.70;9.80;;;;;;;6.62;62.45;100655.44;105790;1254;62656;-58
2023/04/04 11:13:23;;;;;;;12.60;9.90;;;;;;;6.64;62.18;100654.45;105725;1254;64248;-58
2023/04/04 11:16:14;;;;;;;10.40;4.20;;;;;;;6.67;62.39;100654.10;105766;1254;60466;-59
2023/04/04 11:18:48;;;;;;;10.10;4.70;;;;;;;6.77;61.75;100649.31;105641;1254;60479;-58
2023/04/04 11:21:18;;;;;;;9.60;3.60;;;;;;;6.81;61.16;100654.54;105686;1256;66708;-58
2023/04/04 11:23:50;;;;;;;11.60;9.40;;;;;;;6.79;61.36;100658.48;105494;1254;71063;-58
2023/04/04 11:26:25;;;;;;;13.70;8.90;;;;;;;6.75;61.44;100656.77;105535;1254;65015;-58
2023/04/04 11:28:58;;;;;;;7.00;3.50;;;;;;;6.70;61.19;100655.65;105782;1254;60492;-60
2023/04/04 11:31:41;;;;;;;13.20;7.70;;;;;;;6.66;60.95;100657.66;105603;1257;60856;-59
2023/04/04 11:34:11;;;;;;;8.40;4.00;;;;;;;6.67;61.22;100655.30;105624;1254;66188;-58
2023/04/04 11:36:41;;;;;;;13.80;6.90;;;;;;;6.75;61.29;100652.56;105522;1254;62601;-59
2023/04/04 11:39:33;;;;;;;10.80;6.80;;;;;;;6.80;60.86;100648.30;105611;1254;65026;-58
2023/04/04 11:42:09;;;;;;;10.60;6.90;;;;;;;6.77;60.78;100645.13;105753;1254;60535;-59
2023/04/04 11:44:40;;;;;;;7.40;3.40;;;;;;;6.74;60.76;100645.89;105620;1258;61764;-59
2023/04/04 11:47:09;;;;;;;8.80;6.40;;;;;;;6.72;61.34;100647.70;105728;1254;66489;-57
2023/04/04 11:49:40;;;;;;;9.90;6.30;;;;;;;6.84;61.18;100648.94;105721;1256;62982;-61
2023/04/04 11:52:10;;;;;;;8.50;5.40;;;;;;;7.00;60.35;100646.89;105693;1260;64839;-58